KPIE/PIE METAR and TAF weather

Enter ICAO airport designator
Station Type Date Time Source
KPIE METAR 2021/07/29 01:53 UTC NOAA

KPIE 290153Z 26003KT 10SM FEW021 OVC070 28/24 A3000 RMK AO2 RAB24E37 SLP160 P0001 T02780239


Station Type Date Time Source
KPIE Decoded METAR 2021/07/29 01:53 UTC NOAA

ST PETERSBURG/CLEARWATER, FL, United States (KPIE) 27-55N 82-41W 4M
Jul 28, 2021 - 09:53 PM EDT / 2021.07.29 0153 UTC
Wind: from the W (260 degrees) at 3 MPH (3 KT):0
Visibility: 10 mile(s):0
Sky conditions: overcast
Precipitation last hour: 0.01 inches
Temperature: 82.0 F (27.8 C)
Dew Point: 75.0 F (23.9 C)
Relative Humidity: 79%
Pressure (altimeter): 30 in. Hg (1015 hPa)
ob: KPIE 290153Z 26003KT 10SM FEW021 OVC070 28/24 A3000 RMK AO2 RAB24E37 SLP160 P0001 T02780239
cycle: 2

Station Type Date Time Source
KPIE TAF 2021/07/28 20:12 UTC NOAA

TAF
AMD KPIE 282010Z 2820/2918 24006KT P6SM VCSH SCT025 BKN040
TEMPO 2820/2822 BKN025 OVC040
FM290000 25004KT P6SM SCT040 BKN250
FM291400 28006KT 6SM SHRA VCTS SCT040CB BKN200

Example: see airport list